createdAt,value
2019-02-27T00:01:55.787Z,6.90
2019-02-27T00:04:26.152Z,6.93
2019-02-27T00:06:56.101Z,6.43
2019-02-27T00:09:26.113Z,6.00
2019-02-27T00:11:56.120Z,6.77
2019-02-27T00:14:26.099Z,6.47
2019-02-27T00:16:56.066Z,6.77
2019-02-27T00:19:26.016Z,6.30
2019-02-27T00:21:55.990Z,6.53
2019-02-27T00:24:27.079Z,6.40
2019-02-27T00:26:57.618Z,6.13
2019-02-27T00:29:28.979Z,6.27
2019-02-27T00:31:59.219Z,7.33
2019-02-27T00:34:33.008Z,6.27
2019-02-27T00:37:02.565Z,6.97
2019-02-27T00:39:32.531Z,6.00
2019-02-27T00:42:02.533Z,5.60
2019-02-27T00:44:34.773Z,6.13
2019-02-27T00:47:04.467Z,5.97
2019-02-27T00:49:34.511Z,6.33
2019-02-27T00:52:04.470Z,6.53
2019-02-27T00:54:34.440Z,5.93
2019-02-27T00:57:04.471Z,6.37
2019-02-27T00:59:34.451Z,6.30
2019-02-27T01:02:04.758Z,5.90
2019-02-27T01:04:35.662Z,5.70
2019-02-27T01:07:05.710Z,5.77
2019-02-27T01:09:39.038Z,6.07
2019-02-27T01:12:07.314Z,5.43
2019-02-27T01:14:38.738Z,6.10
2019-02-27T01:17:08.704Z,5.60
2019-02-27T01:19:39.368Z,5.97
2019-02-27T01:22:10.491Z,6.00
2019-02-27T01:24:40.445Z,6.47
2019-02-27T01:27:10.755Z,5.47
2019-02-27T01:29:41.104Z,6.43
2019-02-27T01:32:11.089Z,6.00
2019-02-27T01:34:44.296Z,6.00
2019-02-27T01:37:12.632Z,5.80
2019-02-27T01:39:44.128Z,6.33
2019-02-27T01:42:14.797Z,5.63
2019-02-27T01:44:46.686Z,5.93
2019-02-27T01:47:16.498Z,5.53
2019-02-27T01:49:48.883Z,6.37
2019-02-27T01:52:18.993Z,6.10
2019-02-27T01:54:49.575Z,5.80
2019-02-27T01:57:19.864Z,6.33
2019-02-27T01:59:50.967Z,6.03
2019-02-27T02:02:21.289Z,6.10
2019-02-27T02:04:53.714Z,5.87
2019-02-27T02:07:24.143Z,5.73
2019-02-27T02:09:55.030Z,6.23
2019-02-27T02:12:29.843Z,5.83
2019-02-27T02:15:17.352Z,5.93
2019-02-27T02:18:45.717Z,6.07
2019-02-27T02:21:52.646Z,6.33
2019-02-27T02:25:18.898Z,5.70
2019-02-27T02:28:35.271Z,5.43
2019-02-27T02:31:40.775Z,5.80
2019-02-27T02:34:46.885Z,5.73
2019-02-27T02:37:55.193Z,5.70
2019-02-27T02:40:55.215Z,5.47
2019-02-27T02:44:01.157Z,6.17
2019-02-27T02:47:27.687Z,6.03
2019-02-27T02:50:37.347Z,5.60
2019-02-27T02:54:01.710Z,5.43
2019-02-27T02:56:42.931Z,5.63
2019-02-27T03:00:12.316Z,5.70
2019-02-27T03:03:12.271Z,5.23
2019-02-27T03:06:44.579Z,5.87
2019-02-27T03:10:08.321Z,5.40
2019-02-27T03:13:09.783Z,5.73
2019-02-27T03:16:09.811Z,5.63
2019-02-27T03:18:52.209Z,5.43
2019-02-27T03:22:04.535Z,6.60
2019-02-27T03:25:04.221Z,5.90
2019-02-27T03:28:28.592Z,5.53
2019-02-27T03:31:39.627Z,5.27
2019-02-27T03:34:50.987Z,5.63
2019-02-27T03:38:06.989Z,5.00
2019-02-27T03:41:27.372Z,5.70
2019-02-27T03:44:09.453Z,5.17
2019-02-27T03:47:08.985Z,5.60
2019-02-27T03:50:17.154Z,5.23
2019-02-27T03:53:23.677Z,5.30
2019-02-27T03:56:53.068Z,5.37
2019-02-27T03:59:49.187Z,5.30
2019-02-27T04:03:02.249Z,5.23
2019-02-27T04:06:08.697Z,5.20
2019-02-27T04:08:56.744Z,5.43
2019-02-27T04:11:27.165Z,5.57
2019-02-27T04:14:03.290Z,5.83
2019-02-27T04:16:30.758Z,5.70
2019-02-27T04:19:04.614Z,5.97
2019-02-27T04:21:32.458Z,6.53
2019-02-27T04:24:02.329Z,6.43
2019-02-27T04:26:32.346Z,5.90
2019-02-27T04:29:12.040Z,5.60
2019-02-27T04:31:42.291Z,6.80
2019-02-27T04:34:12.162Z,6.30
2019-02-27T04:36:42.049Z,7.03
2019-02-27T04:39:11.995Z,6.63
2019-02-27T04:41:42.186Z,6.40
2019-02-27T04:44:12.146Z,6.73
2019-02-27T04:46:42.139Z,6.80
2019-02-27T04:49:12.015Z,6.63
2019-02-27T04:51:42.155Z,6.83
2019-02-27T04:54:12.032Z,6.77
2019-02-27T04:56:41.907Z,7.47
2019-02-27T04:59:11.800Z,8.47
2019-02-27T05:01:42.421Z,7.27
2019-02-27T05:04:12.240Z,7.23
2019-02-27T05:06:42.192Z,7.07
2019-02-27T05:09:13.219Z,6.77
2019-02-27T05:11:47.593Z,7.80
2019-02-27T05:14:15.918Z,7.03
2019-02-27T05:16:47.328Z,6.90
2019-02-27T05:19:17.526Z,7.77
2019-02-27T05:21:47.512Z,6.70
2019-02-27T05:24:19.431Z,5.60
2019-02-27T05:26:49.372Z,5.57
2019-02-27T05:29:19.328Z,5.57
2019-02-27T05:31:50.152Z,5.20
2019-02-27T05:34:20.776Z,4.67
2019-02-27T05:36:50.735Z,5.03
2019-02-27T05:39:22.275Z,5.00
2019-02-27T05:41:52.543Z,5.03
2019-02-27T05:44:23.054Z,5.47
2019-02-27T05:46:52.946Z,4.83
2019-02-27T05:49:26.601Z,5.20
2019-02-27T05:51:54.535Z,5.03
2019-02-27T05:54:24.871Z,5.20
2019-02-27T05:56:54.822Z,5.37
2019-02-27T05:59:29.140Z,6.07
2019-02-27T06:01:58.308Z,5.83
2019-02-27T06:04:28.301Z,5.03
2019-02-27T06:06:58.103Z,5.77
2019-02-27T06:09:28.056Z,6.00
2019-02-27T06:11:57.938Z,5.37
2019-02-27T06:14:27.903Z,5.07
2019-02-27T06:17:00.117Z,5.23
2019-02-27T06:19:33.321Z,6.20
2019-02-27T06:22:01.654Z,6.47
2019-02-27T06:24:31.571Z,5.40
2019-02-27T06:27:06.073Z,4.63
2019-02-27T06:29:33.170Z,5.50
2019-02-27T06:32:03.198Z,5.10
2019-02-27T06:34:33.298Z,5.40
2019-02-27T06:37:03.273Z,5.10
2019-02-27T06:39:34.461Z,4.83
2019-02-27T06:42:05.040Z,5.00
2019-02-27T06:44:36.623Z,5.30
2019-02-27T06:47:07.257Z,6.23
2019-02-27T06:49:38.214Z,6.80
2019-02-27T06:52:09.214Z,6.60
2019-02-27T06:54:39.902Z,6.77
2019-02-27T06:57:10.694Z,6.60
2019-02-27T06:59:41.706Z,5.97
2019-02-27T07:02:11.908Z,6.10
2019-02-27T07:04:42.138Z,6.50
2019-02-27T07:07:12.417Z,6.27
2019-02-27T07:09:45.926Z,5.40
2019-02-27T07:12:15.864Z,6.50
2019-02-27T07:14:45.829Z,6.80
2019-02-27T07:17:15.709Z,7.17
2019-02-27T07:19:47.439Z,7.10
2019-02-27T07:22:18.636Z,6.87
2019-02-27T07:24:48.602Z,7.47
2019-02-27T07:27:18.579Z,7.10
2019-02-27T07:29:48.542Z,8.10
2019-02-27T07:32:18.450Z,7.97
2019-02-27T07:34:49.783Z,7.83
2019-02-27T07:37:20.751Z,8.07
2019-02-27T07:39:51.388Z,8.53
2019-02-27T07:42:21.329Z,7.87
2019-02-27T07:44:51.558Z,9.23
2019-02-27T07:47:21.819Z,9.60
2019-02-27T07:49:51.777Z,8.60
2019-02-27T07:52:22.020Z,8.47
2019-02-27T07:54:51.984Z,8.60
2019-02-27T07:57:23.229Z,7.23
2019-02-27T07:59:53.131Z,8.20
2019-02-27T08:02:23.341Z,7.30
2019-02-27T08:04:54.663Z,7.40
2019-02-27T08:07:25.575Z,8.07
2019-02-27T08:09:55.481Z,7.60
2019-02-27T08:12:25.415Z,8.07
2019-02-27T08:14:55.373Z,8.53
2019-02-27T08:17:25.367Z,8.43
2019-02-27T08:19:55.266Z,9.00
2019-02-27T08:22:25.296Z,8.20
2019-02-27T08:24:55.566Z,8.27
2019-02-27T08:27:25.577Z,8.70
2019-02-27T08:29:55.529Z,11.10
2019-02-27T08:32:25.501Z,10.63
2019-02-27T08:34:55.420Z,10.80
2019-02-27T08:37:25.381Z,10.73
2019-02-27T08:39:55.311Z,10.40
2019-02-27T08:42:25.274Z,10.73
2019-02-27T08:44:55.168Z,9.40
2019-02-27T08:47:25.124Z,8.63
2019-02-27T08:49:58.076Z,8.73
2019-02-27T08:52:26.832Z,9.80
2019-02-27T08:54:56.732Z,9.63
2019-02-27T08:57:26.691Z,8.67
2019-02-27T08:59:56.997Z,10.43
2019-02-27T09:02:29.231Z,9.50
2019-02-27T09:04:58.898Z,10.63
2019-02-27T09:07:28.847Z,9.30
2019-02-27T09:09:58.807Z,9.60
2019-02-27T09:12:28.616Z,9.23
2019-02-27T09:14:58.476Z,9.43
2019-02-27T09:17:28.466Z,9.37
2019-02-27T09:19:58.682Z,10.27
2019-02-27T09:22:28.629Z,8.70
2019-02-27T09:24:59.414Z,10.23
2019-02-27T09:27:29.724Z,9.70
2019-02-27T09:29:59.893Z,10.37
2019-02-27T09:32:29.856Z,9.10
2019-02-27T09:35:00.288Z,9.17
2019-02-27T09:37:31.618Z,8.97
2019-02-27T09:40:04.403Z,8.40
2019-02-27T09:42:33.279Z,8.70
2019-02-27T09:45:03.256Z,8.77
2019-02-27T09:47:33.589Z,8.37
2019-02-27T09:50:03.559Z,8.20
2019-02-27T09:52:35.592Z,8.37
2019-02-27T09:55:06.258Z,8.97
2019-02-27T09:57:36.777Z,8.63
2019-02-27T10:00:25.933Z,8.97
2019-02-27T10:02:55.368Z,8.10
2019-02-27T10:05:25.421Z,9.17
2019-02-27T10:07:56.939Z,8.13
2019-02-27T10:10:27.195Z,8.67
2019-02-27T10:12:57.227Z,8.77
2019-02-27T10:15:27.200Z,7.23
2019-02-27T10:17:57.449Z,7.47
2019-02-27T10:20:27.433Z,7.63
2019-02-27T10:22:58.510Z,8.40
2019-02-27T10:25:28.472Z,8.97
2019-02-27T10:28:03.457Z,7.80
2019-02-27T10:30:30.138Z,8.47
2019-02-27T10:33:00.091Z,9.07
2019-02-27T10:35:30.173Z,8.47
2019-02-27T10:38:00.105Z,7.00
2019-02-27T10:40:30.206Z,7.87
2019-02-27T10:43:00.160Z,6.60
2019-02-27T10:45:30.125Z,7.47
2019-02-27T10:48:00.581Z,7.80
2019-02-27T10:50:30.569Z,7.93
2019-02-27T10:53:02.352Z,8.17
2019-02-27T10:55:32.624Z,7.30
2019-02-27T10:58:02.928Z,7.60
2019-02-27T11:00:33.009Z,8.00
2019-02-27T11:03:03.571Z,7.30
2019-02-27T11:05:34.547Z,6.90
2019-02-27T11:08:06.761Z,7.73
2019-02-27T11:10:37.117Z,8.27
2019-02-27T11:13:07.545Z,7.83
2019-02-27T11:15:41.074Z,8.10
2019-02-27T11:18:10.277Z,8.20
2019-02-27T11:20:40.259Z,7.90
2019-02-27T11:23:10.165Z,8.00
2019-02-27T11:25:40.162Z,7.50
2019-02-27T11:28:10.169Z,8.23
2019-02-27T11:30:40.153Z,8.47
2019-02-27T11:33:10.432Z,7.33
2019-02-27T11:35:40.451Z,7.37
2019-02-27T11:38:10.714Z,6.40
2019-02-27T11:40:42.601Z,6.57
2019-02-27T11:43:12.367Z,6.40
2019-02-27T11:45:42.338Z,6.60
2019-02-27T11:48:12.609Z,7.23
2019-02-27T11:50:42.887Z,7.70
2019-02-27T11:53:12.862Z,8.03
2019-02-27T11:55:43.161Z,8.07
2019-02-27T11:58:13.139Z,8.13
2019-02-27T12:00:43.155Z,8.03
2019-02-27T12:03:13.068Z,8.60
2019-02-27T12:05:43.078Z,8.33
2019-02-27T12:08:12.956Z,7.20
2019-02-27T12:10:42.853Z,8.27
2019-02-27T12:13:13.471Z,9.37
2019-02-27T12:15:44.223Z,7.70
2019-02-27T12:18:14.904Z,8.37
2019-02-27T12:20:44.962Z,7.47
2019-02-27T12:23:15.381Z,7.70
2019-02-27T12:25:45.393Z,7.20
2019-02-27T12:28:18.129Z,6.87
2019-02-27T12:30:47.368Z,7.00
2019-02-27T12:33:17.354Z,7.30
2019-02-27T12:35:47.311Z,7.70
2019-02-27T12:38:17.346Z,7.03
2019-02-27T12:40:47.656Z,7.07
2019-02-27T12:43:18.557Z,6.97
2019-02-27T12:45:48.696Z,7.93
2019-02-27T12:48:18.661Z,7.43
2019-02-27T12:50:48.648Z,7.47
2019-02-27T12:53:21.510Z,6.37
2019-02-27T12:55:50.332Z,6.57
2019-02-27T12:58:20.834Z,7.13
2019-02-27T13:00:50.913Z,6.33
2019-02-27T13:03:21.193Z,7.40
2019-02-27T13:05:51.162Z,7.07
2019-02-27T13:08:23.280Z,6.73
2019-02-27T13:10:53.235Z,6.97
2019-02-27T13:13:25.832Z,7.30
2019-02-27T13:15:54.969Z,7.03
2019-02-27T13:18:24.990Z,6.57
2019-02-27T13:20:55.309Z,7.13
2019-02-27T13:23:25.277Z,7.57
2019-02-27T13:25:57.506Z,6.70
2019-02-27T13:28:26.922Z,6.30
2019-02-27T13:30:56.946Z,6.27
2019-02-27T13:33:26.854Z,5.93
2019-02-27T13:35:59.638Z,5.73
2019-02-27T13:38:28.545Z,5.40
2019-02-27T13:40:58.550Z,4.97
2019-02-27T13:43:28.826Z,5.63
2019-02-27T13:45:58.846Z,5.73
2019-02-27T13:48:28.874Z,5.90
2019-02-27T13:50:59.369Z,5.27
2019-02-27T13:53:31.149Z,5.33
2019-02-27T13:56:01.153Z,5.60
2019-02-27T13:58:35.743Z,4.67
2019-02-27T14:01:03.040Z,5.33
2019-02-27T14:03:33.272Z,4.23
2019-02-27T14:06:06.213Z,4.53
2019-02-27T14:08:35.632Z,3.60
2019-02-27T14:11:05.597Z,3.40
2019-02-27T14:13:35.403Z,2.90
2019-02-27T14:16:05.404Z,2.70
2019-02-27T14:18:35.551Z,3.23
2019-02-27T14:21:05.538Z,3.27
2019-02-27T14:23:35.968Z,3.40
2019-02-27T14:26:08.473Z,2.60
2019-02-27T14:28:37.604Z,2.13
2019-02-27T14:31:09.418Z,2.00
2019-02-27T14:33:39.236Z,1.90
2019-02-27T14:36:09.320Z,1.87
2019-02-27T14:38:39.266Z,2.00
2019-02-27T14:41:11.162Z,1.87
2019-02-27T14:43:41.132Z,1.90
2019-02-27T14:46:12.263Z,2.67
2019-02-27T14:48:42.797Z,1.60
2019-02-27T14:51:12.776Z,1.93
2019-02-27T14:53:43.968Z,2.20
2019-02-27T14:56:13.913Z,2.33
2019-02-27T14:58:43.900Z,1.83
2019-02-27T15:01:14.447Z,2.20
2019-02-27T15:03:45.539Z,2.93
2019-02-27T15:06:15.923Z,2.50
2019-02-27T15:08:57.474Z,2.17
2019-02-27T15:11:19.294Z,2.43
2019-02-27T15:13:49.293Z,3.27
2019-02-27T15:16:19.527Z,2.40
2019-02-27T15:18:49.466Z,2.50
2019-02-27T15:21:20.482Z,2.40
2019-02-27T15:23:50.883Z,2.27
2019-02-27T15:26:20.866Z,2.17
2019-02-27T15:28:50.856Z,2.00
2019-02-27T15:31:21.311Z,2.37
2019-02-27T15:33:53.958Z,1.80
2019-02-27T15:36:29.329Z,1.87
2019-02-27T15:38:56.001Z,2.20
2019-02-27T15:41:25.990Z,2.23
2019-02-27T15:44:00.202Z,2.80
2019-02-27T15:46:27.728Z,1.80
2019-02-27T15:48:57.998Z,2.33
2019-02-27T15:51:32.078Z,2.23
2019-02-27T15:53:59.994Z,2.30
2019-02-27T15:56:29.998Z,2.20
2019-02-27T15:59:04.905Z,1.90
2019-02-27T16:01:33.074Z,2.53
2019-02-27T16:04:03.215Z,2.13
2019-02-27T16:06:33.471Z,2.50
2019-02-27T16:09:05.986Z,3.53
2019-02-27T16:11:37.555Z,2.73
2019-02-27T16:14:10.143Z,2.60
2019-02-27T16:16:39.218Z,2.57
2019-02-27T16:19:10.757Z,2.47
2019-02-27T16:21:41.249Z,1.90
2019-02-27T16:24:11.224Z,1.70
2019-02-27T16:26:41.190Z,2.73
2019-02-27T16:29:11.179Z,2.43
2019-02-27T16:31:41.493Z,2.37
2019-02-27T16:34:11.515Z,2.33
2019-02-27T16:36:41.444Z,2.17
2019-02-27T16:39:11.434Z,2.53
2019-02-27T16:41:41.472Z,1.70
2019-02-27T16:44:11.453Z,2.47
2019-02-27T16:46:44.604Z,2.07
2019-02-27T16:49:13.083Z,2.30
2019-02-27T16:51:43.264Z,2.50
2019-02-27T16:54:13.769Z,2.37
2019-02-27T16:56:47.718Z,2.37
2019-02-27T16:59:17.139Z,2.50
2019-02-27T17:01:47.449Z,2.00
2019-02-27T17:04:17.985Z,2.53
2019-02-27T17:06:49.178Z,2.40
2019-02-27T17:09:19.781Z,3.07
2019-02-27T17:11:49.731Z,2.40
2019-02-27T17:14:21.211Z,2.33
2019-02-27T17:16:51.278Z,2.50
2019-02-27T17:19:21.159Z,2.63
2019-02-27T17:21:51.157Z,2.43
2019-02-27T17:24:22.061Z,2.10
2019-02-27T17:26:52.193Z,2.30
2019-02-27T17:29:22.827Z,2.60
2019-02-27T17:31:55.792Z,2.60
2019-02-27T17:34:26.417Z,4.13
2019-02-27T17:36:56.738Z,4.00
2019-02-27T17:39:30.386Z,3.10
2019-02-27T17:41:58.837Z,3.17
2019-02-27T17:44:29.149Z,3.10
2019-02-27T17:46:59.114Z,2.57
2019-02-27T17:49:29.149Z,2.60
2019-02-27T17:52:00.250Z,2.40
2019-02-27T17:54:31.514Z,2.73
2019-02-27T17:57:02.161Z,2.70
2019-02-27T17:59:32.048Z,2.70
2019-02-27T18:02:02.365Z,2.60
2019-02-27T18:04:34.233Z,2.90
2019-02-27T18:07:06.406Z,3.40
2019-02-27T18:09:36.205Z,2.80
2019-02-27T18:12:06.219Z,3.37
2019-02-27T18:14:36.124Z,3.30
2019-02-27T18:17:06.713Z,3.23
2019-02-27T18:19:37.007Z,3.40
2019-02-27T18:22:06.987Z,3.33
2019-02-27T18:24:37.261Z,3.53
2019-02-27T18:27:07.257Z,3.60
2019-02-27T18:29:38.326Z,3.47
2019-02-27T18:32:08.357Z,3.77
2019-02-27T18:34:39.618Z,3.97
2019-02-27T18:37:09.597Z,3.90
2019-02-27T18:39:41.387Z,4.27
2019-02-27T18:42:12.705Z,3.93
2019-02-27T18:44:43.939Z,4.57
2019-02-27T18:47:14.481Z,4.50
2019-02-27T18:49:49.093Z,4.63
2019-02-27T18:52:21.361Z,4.43
2019-02-27T18:54:49.856Z,5.00
2019-02-27T18:57:20.146Z,5.50
2019-02-27T18:59:50.114Z,5.80
2019-02-27T19:02:20.750Z,5.90
2019-02-27T19:04:50.808Z,6.13
2019-02-27T19:07:22.899Z,6.77
2019-02-27T19:09:52.859Z,7.67
2019-02-27T19:12:28.427Z,7.73
2019-02-27T19:14:54.625Z,8.00
2019-02-27T19:17:29.049Z,8.43
2019-02-27T19:19:56.542Z,10.23
2019-02-27T19:22:26.632Z,12.17
2019-02-27T19:24:57.465Z,10.90
2019-02-27T19:27:30.391Z,10.47
2019-02-27T19:30:00.399Z,10.43
2019-02-27T19:32:30.351Z,10.20
2019-02-27T19:35:00.702Z,10.33
2019-02-27T19:37:30.749Z,10.47
2019-02-27T19:40:01.080Z,10.43
2019-02-27T19:42:32.880Z,10.70
2019-02-27T19:45:04.226Z,10.80
2019-02-27T19:47:34.918Z,10.97
2019-02-27T19:50:08.543Z,10.70
2019-02-27T19:52:37.828Z,10.40
2019-02-27T19:55:08.012Z,9.90
2019-02-27T19:57:39.317Z,10.13
2019-02-27T20:00:10.613Z,9.27
2019-02-27T20:02:42.216Z,8.87
2019-02-27T20:05:11.707Z,7.93
2019-02-27T20:07:41.700Z,7.73
2019-02-27T20:10:12.377Z,7.73
2019-02-27T20:12:42.439Z,8.03
2019-02-27T20:15:13.443Z,6.57
2019-02-27T20:17:43.643Z,7.40
2019-02-27T20:20:14.802Z,6.80
2019-02-27T20:22:44.849Z,6.27
2019-02-27T20:25:15.158Z,6.03
2019-02-27T20:27:45.142Z,6.10
2019-02-27T20:30:17.276Z,5.20
2019-02-27T20:32:47.650Z,4.37
2019-02-27T20:35:20.768Z,4.97
2019-02-27T20:37:49.337Z,4.20
2019-02-27T20:40:19.801Z,5.17
2019-02-27T20:42:53.797Z,4.60
2019-02-27T20:45:21.890Z,4.50
2019-02-27T20:47:57.846Z,5.13
2019-02-27T20:50:34.966Z,4.40
2019-02-27T20:52:59.546Z,4.60
2019-02-27T20:55:30.942Z,4.73
2019-02-27T20:58:02.785Z,5.63
2019-02-27T21:00:35.962Z,5.13
2019-02-27T21:03:04.896Z,5.63
2019-02-27T21:05:34.847Z,5.73
2019-02-27T21:08:04.814Z,5.67
2019-02-27T21:10:34.739Z,6.23
2019-02-27T21:13:04.721Z,5.57
2019-02-27T21:15:34.711Z,5.30
2019-02-27T21:18:06.377Z,5.20
2019-02-27T21:20:36.278Z,5.43
2019-02-27T21:23:06.349Z,5.17
2019-02-27T21:25:36.316Z,5.33
2019-02-27T21:28:07.618Z,5.37
2019-02-27T21:30:38.925Z,5.07
2019-02-27T21:33:11.175Z,5.07
2019-02-27T21:35:40.929Z,5.10
2019-02-27T21:38:10.893Z,4.70
2019-02-27T21:40:40.834Z,5.20
2019-02-27T21:43:10.795Z,4.83
2019-02-27T21:45:40.756Z,4.43
2019-02-27T21:48:10.703Z,4.97
2019-02-27T21:50:40.649Z,4.73
2019-02-27T21:53:10.908Z,5.80
2019-02-27T21:55:40.866Z,4.90
2019-02-27T21:58:20.011Z,4.47
2019-02-27T22:00:44.953Z,4.70
2019-02-27T22:03:14.822Z,5.30
2019-02-27T22:05:45.085Z,5.60
2019-02-27T22:08:14.995Z,5.30
2019-02-27T22:10:44.967Z,5.77
2019-02-27T22:13:15.270Z,4.83
2019-02-27T22:15:45.464Z,4.97
2019-02-27T22:18:15.339Z,4.63
2019-02-27T22:20:45.289Z,5.30
2019-02-27T22:23:15.578Z,4.83
2019-02-27T22:25:46.279Z,4.83
2019-02-27T22:28:17.249Z,5.00
2019-02-27T22:30:48.114Z,5.00
2019-02-27T22:33:22.099Z,5.27
2019-02-27T22:35:50.249Z,5.87
2019-02-27T22:38:20.200Z,5.00
2019-02-27T22:40:50.140Z,5.33
2019-02-27T22:43:21.977Z,5.40
2019-02-27T22:45:51.685Z,4.67
2019-02-27T22:48:22.076Z,5.13
2019-02-27T22:50:52.068Z,4.97
2019-02-27T22:53:22.069Z,4.97
2019-02-27T22:55:52.389Z,5.13
2019-02-27T22:58:22.289Z,5.13
2019-02-27T23:01:04.874Z,5.13
2019-02-27T23:03:44.910Z,5.23
2019-02-27T23:06:14.979Z,4.60
2019-02-27T23:08:45.620Z,5.10
2019-02-27T23:11:16.247Z,5.67
2019-02-27T23:13:48.396Z,5.13
2019-02-27T23:16:19.355Z,4.73
2019-02-27T23:18:50.001Z,4.70
2019-02-27T23:21:19.971Z,5.20
2019-02-27T23:23:51.912Z,5.40
2019-02-27T23:26:22.170Z,5.20
2019-02-27T23:28:52.045Z,5.07
2019-02-27T23:31:23.478Z,4.83
2019-02-27T23:33:53.906Z,5.27
2019-02-27T23:36:23.811Z,5.10
2019-02-27T23:38:53.772Z,5.30
2019-02-27T23:41:23.922Z,5.30
2019-02-27T23:43:53.853Z,4.60
2019-02-27T23:46:23.776Z,5.53
2019-02-27T23:48:54.088Z,5.10
2019-02-27T23:51:24.102Z,4.37
2019-02-27T23:53:55.482Z,5.43
2019-02-27T23:56:25.478Z,4.73
2019-02-27T23:58:55.412Z,5.37
